createdAt,value
2022-11-09T00:01:45.903Z,6.25
2022-11-09T00:04:12.561Z,5.03
2022-11-09T00:06:39.409Z,5.65
2022-11-09T00:09:08.392Z,3.65
2022-11-09T00:11:38.628Z,3.05
2022-11-09T00:14:05.430Z,2.97
2022-11-09T00:16:32.170Z,3.63
2022-11-09T00:18:59.012Z,4.43
2022-11-09T00:21:26.959Z,6.07
2022-11-09T00:23:53.862Z,4.82
2022-11-09T00:26:21.609Z,4.88
2022-11-09T00:28:48.792Z,3.63
2022-11-09T00:31:18.238Z,3.85
2022-11-09T00:33:49.393Z,3.97
2022-11-09T00:36:16.286Z,3.58
2022-11-09T00:38:43.178Z,4.03
2022-11-09T00:41:11.899Z,3.65
2022-11-09T00:43:38.613Z,5.68
2022-11-09T00:46:05.888Z,4.03
2022-11-09T00:48:32.938Z,6.68
2022-11-09T00:50:59.857Z,6.18
2022-11-09T00:53:27.389Z,4.85
2022-11-09T00:56:02.780Z,4.53
2022-11-09T00:58:31.108Z,4.22
2022-11-09T01:00:59.262Z,4.07
2022-11-09T01:03:26.780Z,4.28
2022-11-09T01:05:53.806Z,3.38
2022-11-09T01:08:20.518Z,4.13
2022-11-09T01:10:48.439Z,5.15
2022-11-09T01:13:17.814Z,5.15
2022-11-09T01:15:53.296Z,4.15
2022-11-09T01:18:21.463Z,7.38
2022-11-09T01:20:49.497Z,3.50
2022-11-09T01:23:18.535Z,4.30
2022-11-09T01:25:45.514Z,5.30
2022-11-09T01:28:12.801Z,4.65
2022-11-09T01:30:42.129Z,3.05
2022-11-09T01:33:11.725Z,4.82
2022-11-09T01:35:40.265Z,4.20
2022-11-09T01:38:08.665Z,4.35
2022-11-09T01:40:37.447Z,7.78
2022-11-09T01:43:14.333Z,4.88
2022-11-09T01:45:42.245Z,5.97
2022-11-09T01:48:14.203Z,5.85
2022-11-09T01:50:46.123Z,4.28
2022-11-09T01:53:19.017Z,4.88
2022-11-09T01:55:48.549Z,8.23
2022-11-09T01:58:20.978Z,5.25
2022-11-09T02:00:49.626Z,3.50
2022-11-09T02:03:25.372Z,5.05
2022-11-09T02:05:52.999Z,4.78
2022-11-09T02:08:23.521Z,4.70
2022-11-09T02:11:13.106Z,5.47
2022-11-09T02:13:43.574Z,6.25
2022-11-09T02:16:13.064Z,6.03
2022-11-09T02:18:57.064Z,4.75
2022-11-09T02:21:26.363Z,5.53
2022-11-09T02:23:53.386Z,5.07
2022-11-09T02:26:25.587Z,7.95
2022-11-09T02:28:55.268Z,8.45
2022-11-09T02:31:25.054Z,7.35
2022-11-09T02:33:51.622Z,5.13
2022-11-09T02:36:18.257Z,8.65
2022-11-09T02:38:45.043Z,5.47
2022-11-09T02:41:13.027Z,5.18
2022-11-09T02:43:40.628Z,6.53
2022-11-09T02:46:07.303Z,5.40
2022-11-09T02:48:33.924Z,5.38
2022-11-09T02:51:00.544Z,6.72
2022-11-09T02:53:27.123Z,6.78
2022-11-09T02:55:53.733Z,6.05
2022-11-09T02:58:20.423Z,6.25
2022-11-09T03:00:47.153Z,4.60
2022-11-09T03:03:13.817Z,6.25
2022-11-09T03:05:40.493Z,6.00
2022-11-09T03:08:07.133Z,6.78
2022-11-09T03:10:33.758Z,7.00
2022-11-09T03:13:00.390Z,6.82
2022-11-09T03:15:27.042Z,7.65
2022-11-09T03:17:53.676Z,7.13
2022-11-09T03:20:20.321Z,8.13
2022-11-09T03:22:46.967Z,8.23
2022-11-09T03:25:13.622Z,10.40
2022-11-09T03:27:40.346Z,7.90
2022-11-09T03:30:07.761Z,8.32
2022-11-09T03:32:34.397Z,8.68
2022-11-09T03:35:00.998Z,8.57
2022-11-09T03:37:27.837Z,8.43
2022-11-09T03:39:54.471Z,7.43
2022-11-09T03:42:21.196Z,10.00
2022-11-09T03:44:48.361Z,8.52
2022-11-09T03:47:14.951Z,8.65
2022-11-09T03:49:41.644Z,8.95
2022-11-09T03:52:08.350Z,7.53
2022-11-09T03:54:35.051Z,8.18
2022-11-09T03:57:01.699Z,8.27
2022-11-09T03:59:28.356Z,8.20
2022-11-09T04:01:55.028Z,8.00
2022-11-09T04:04:21.666Z,7.97
2022-11-09T04:06:48.364Z,10.00
2022-11-09T04:09:15.004Z,7.05
2022-11-09T04:11:41.647Z,8.32
2022-11-09T04:14:08.319Z,9.43
2022-11-09T04:16:34.957Z,8.15
2022-11-09T04:19:01.647Z,6.32
2022-11-09T04:21:28.318Z,7.57
2022-11-09T04:23:54.933Z,8.55
2022-11-09T04:26:21.565Z,8.10
2022-11-09T04:28:48.291Z,7.45
2022-11-09T04:31:14.945Z,6.53
2022-11-09T04:33:41.604Z,7.03
2022-11-09T04:36:08.741Z,8.07
2022-11-09T04:38:36.516Z,6.65
2022-11-09T04:41:04.511Z,5.93
2022-11-09T04:43:31.498Z,8.18
2022-11-09T04:46:02.315Z,6.60
2022-11-09T04:48:30.393Z,6.63
2022-11-09T04:51:05.657Z,5.68
2022-11-09T04:53:33.769Z,6.55
2022-11-09T04:56:00.995Z,10.48
2022-11-09T04:58:27.692Z,6.32
2022-11-09T05:00:55.162Z,7.25
2022-11-09T05:03:22.400Z,7.07
2022-11-09T05:05:49.362Z,5.10
2022-11-09T05:08:16.045Z,5.63
2022-11-09T05:10:42.657Z,6.15
2022-11-09T05:13:12.596Z,6.13
2022-11-09T05:15:40.014Z,5.20
2022-11-09T05:18:07.328Z,6.47
2022-11-09T05:20:35.121Z,5.65
2022-11-09T05:23:21.142Z,5.07
2022-11-09T05:25:48.225Z,6.68
2022-11-09T05:28:15.091Z,4.72
2022-11-09T05:30:41.719Z,5.68
2022-11-09T05:33:08.579Z,5.05
2022-11-09T05:35:35.278Z,6.28
2022-11-09T05:38:01.949Z,5.65
2022-11-09T05:40:28.805Z,5.22
2022-11-09T05:42:56.698Z,5.20
2022-11-09T05:45:42.102Z,5.75
2022-11-09T05:48:11.146Z,5.47
2022-11-09T05:50:38.930Z,6.32
2022-11-09T05:53:05.589Z,5.10
2022-11-09T05:55:32.207Z,5.53
2022-11-09T05:57:58.930Z,6.82
2022-11-09T06:00:26.044Z,5.32
2022-11-09T06:02:52.818Z,5.97
2022-11-09T06:05:22.663Z,8.35
2022-11-09T06:07:49.300Z,6.47
2022-11-09T06:10:16.007Z,5.65
2022-11-09T06:12:42.642Z,5.55
2022-11-09T06:15:09.547Z,4.63
2022-11-09T06:17:36.210Z,6.15
2022-11-09T06:20:04.181Z,6.65
2022-11-09T06:22:30.937Z,5.18
2022-11-09T06:24:57.584Z,5.30
2022-11-09T06:27:24.254Z,4.63
2022-11-09T06:29:50.873Z,6.35
2022-11-09T06:32:17.472Z,4.45
2022-11-09T06:34:44.331Z,6.07
2022-11-09T06:37:11.071Z,4.57
2022-11-09T06:39:37.731Z,4.47
2022-11-09T06:42:04.433Z,4.45
2022-11-09T06:44:31.140Z,5.00
2022-11-09T06:46:57.815Z,5.45
2022-11-09T06:49:24.463Z,4.82
2022-11-09T06:51:51.131Z,4.50
2022-11-09T06:54:17.738Z,3.78
2022-11-09T06:56:44.382Z,4.32
2022-11-09T06:59:11.030Z,3.15
2022-11-09T07:01:37.848Z,4.60
2022-11-09T07:04:04.994Z,5.15
2022-11-09T07:06:31.678Z,4.32
2022-11-09T07:08:58.396Z,3.67
2022-11-09T07:11:25.222Z,2.80
2022-11-09T07:13:57.061Z,3.10
2022-11-09T07:18:51.034Z,4.60
2022-11-09T07:21:25.670Z,3.08
2022-11-09T07:23:52.375Z,5.00
2022-11-09T07:26:19.051Z,2.20
2022-11-09T07:28:46.335Z,3.97
2022-11-09T07:31:13.213Z,2.35
2022-11-09T07:33:40.132Z,3.05
2022-11-09T07:36:07.210Z,3.45
2022-11-09T07:38:33.909Z,2.35
2022-11-09T07:41:01.579Z,2.03
2022-11-09T07:43:28.971Z,5.00
2022-11-09T07:45:56.170Z,2.72
2022-11-09T07:48:22.959Z,3.38
2022-11-09T07:50:49.793Z,3.78
2022-11-09T07:53:16.967Z,3.70
2022-11-09T07:55:44.760Z,2.45
2022-11-09T07:58:15.180Z,2.15
2022-11-09T08:00:42.958Z,2.40
2022-11-09T08:03:10.366Z,2.08
2022-11-09T08:05:37.898Z,1.63
2022-11-09T08:08:07.650Z,2.25
2022-11-09T08:10:35.635Z,2.25
2022-11-09T08:13:05.121Z,2.83
2022-11-09T08:15:32.214Z,3.30
2022-11-09T08:18:00.932Z,4.05
2022-11-09T08:20:28.284Z,2.67
2022-11-09T08:22:57.376Z,3.08
2022-11-09T08:25:27.683Z,4.00
2022-11-09T08:27:56.481Z,2.00
2022-11-09T08:30:23.968Z,3.35
2022-11-09T08:32:50.653Z,2.80
2022-11-09T08:35:21.780Z,2.17
2022-11-09T08:37:50.286Z,2.47
2022-11-09T08:40:19.675Z,3.15
2022-11-09T08:42:47.361Z,3.55
2022-11-09T08:45:14.342Z,3.13
2022-11-09T08:47:41.348Z,3.58
2022-11-09T08:50:09.278Z,3.47
2022-11-09T08:52:36.233Z,2.15
2022-11-09T08:55:03.523Z,3.83
2022-11-09T08:57:30.891Z,2.75
2022-11-09T08:59:57.874Z,3.03
2022-11-09T09:02:24.817Z,2.53
2022-11-09T09:04:51.487Z,3.95
2022-11-09T09:07:18.231Z,4.03
2022-11-09T09:09:44.955Z,3.25
2022-11-09T09:12:11.664Z,3.28
2022-11-09T09:14:38.336Z,2.30
2022-11-09T09:17:05.014Z,4.45
2022-11-09T09:19:32.027Z,3.15
2022-11-09T09:21:59.324Z,3.35
2022-11-09T09:24:26.934Z,2.17
2022-11-09T09:26:53.631Z,3.05
2022-11-09T09:29:20.344Z,2.17
2022-11-09T09:31:46.958Z,2.60
2022-11-09T09:34:14.563Z,2.72
2022-11-09T09:36:47.424Z,3.55
2022-11-09T09:39:15.060Z,4.22
2022-11-09T09:41:54.903Z,4.07
2022-11-09T09:44:30.599Z,2.53
2022-11-09T09:47:21.411Z,3.05
2022-11-09T09:53:10.687Z,3.03
2022-11-09T09:55:42.060Z,4.32
2022-11-09T09:58:27.999Z,2.95
2022-11-09T10:01:11.498Z,5.30
2022-11-09T10:03:38.262Z,3.97
2022-11-09T10:06:26.804Z,3.13
2022-11-09T10:09:03.341Z,5.03
2022-11-09T10:11:48.087Z,3.80
2022-11-09T10:14:39.749Z,3.78
2022-11-09T10:17:26.618Z,4.13
2022-11-09T10:20:03.746Z,3.53
2022-11-09T10:22:45.694Z,3.63
2022-11-09T10:25:43.506Z,4.40
2022-11-09T10:28:14.831Z,4.32
2022-11-09T10:30:41.850Z,4.45
2022-11-09T10:33:11.482Z,5.38
2022-11-09T10:36:01.561Z,4.13
2022-11-09T10:38:40.250Z,5.93
2022-11-09T10:41:17.516Z,3.90
2022-11-09T10:43:44.179Z,3.80
2022-11-09T10:46:10.881Z,4.63
2022-11-09T10:48:39.971Z,5.07
2022-11-09T10:51:31.680Z,4.80
2022-11-09T10:54:18.218Z,5.35
2022-11-09T10:57:07.208Z,4.65
2022-11-09T10:59:43.661Z,6.07
2022-11-09T11:02:43.158Z,3.35
2022-11-09T11:05:10.014Z,3.70
2022-11-09T11:07:36.787Z,3.72
2022-11-09T11:10:15.479Z,3.65
2022-11-09T11:13:05.431Z,3.83
2022-11-09T11:15:40.940Z,4.35
2022-11-09T11:18:22.057Z,3.53
2022-11-09T11:21:03.750Z,5.75
2022-11-09T11:23:30.445Z,4.10
2022-11-09T11:26:04.598Z,5.18
2022-11-09T11:28:35.124Z,4.53
2022-11-09T11:31:02.407Z,3.22
2022-11-09T11:33:31.948Z,3.15
2022-11-09T11:36:06.465Z,4.55
2022-11-09T11:38:45.418Z,2.92
2022-11-09T11:41:24.002Z,2.95
2022-11-09T11:46:35.253Z,3.90
2022-11-09T11:49:27.389Z,4.72
2022-11-09T11:52:17.672Z,4.30
2022-11-09T11:54:47.272Z,4.30
2022-11-09T11:57:44.235Z,4.38
2022-11-09T12:00:15.308Z,3.17
2022-11-09T12:03:03.155Z,3.10
2022-11-09T12:05:47.706Z,4.85
2022-11-09T12:08:32.995Z,4.15
2022-11-09T12:11:37.245Z,4.57
2022-11-09T12:14:39.945Z,4.90
2022-11-09T12:17:33.887Z,4.18
2022-11-09T12:20:40.740Z,5.15
2022-11-09T12:23:22.955Z,4.90
2022-11-09T12:25:58.542Z,3.28
2022-11-09T12:28:46.439Z,2.85
2022-11-09T12:31:54.066Z,3.10
2022-11-09T12:34:26.216Z,3.47
2022-11-09T12:36:55.719Z,5.22
2022-11-09T12:39:28.031Z,2.90
2022-11-09T12:41:59.522Z,2.38
2022-11-09T12:44:33.596Z,4.40
2022-11-09T12:47:05.756Z,3.97
2022-11-09T12:49:36.705Z,4.32
2022-11-09T12:52:06.703Z,4.63
2022-11-09T12:54:36.141Z,4.32
2022-11-09T12:57:11.312Z,3.92
2022-11-09T12:59:49.866Z,4.00
2022-11-09T13:05:05.156Z,5.75
2022-11-09T13:07:49.438Z,4.30
2022-11-09T13:10:38.094Z,4.07
2022-11-09T13:13:07.727Z,3.90
2022-11-09T13:15:35.550Z,5.80
2022-11-09T13:18:04.218Z,4.40
2022-11-09T13:23:47.566Z,4.60
2022-11-09T13:26:30.923Z,3.35
2022-11-09T13:29:17.125Z,3.70
2022-11-09T13:32:08.909Z,5.00
2022-11-09T13:34:50.094Z,7.90
2022-11-09T13:37:41.637Z,5.65
2022-11-09T13:40:33.429Z,6.07
2022-11-09T13:43:04.897Z,5.03
2022-11-09T13:45:46.183Z,3.92
2022-11-09T13:48:36.267Z,3.40
2022-11-09T13:51:13.239Z,4.50
2022-11-09T13:53:54.953Z,6.50
2022-11-09T13:56:27.904Z,4.10
2022-11-09T13:59:19.337Z,3.35
2022-11-09T14:01:57.689Z,3.42
2022-11-09T14:04:40.210Z,3.22
2022-11-09T14:07:16.085Z,3.70
2022-11-09T14:09:56.379Z,3.40
2022-11-09T14:12:42.105Z,2.50
2022-11-09T14:15:46.718Z,3.92
2022-11-09T14:18:47.943Z,3.92
2022-11-09T14:21:27.471Z,4.20
2022-11-09T14:23:54.339Z,2.00
2022-11-09T14:26:23.400Z,2.42
2022-11-09T14:28:50.122Z,5.25
2022-11-09T14:31:30.930Z,3.17
2022-11-09T14:34:06.038Z,3.92
2022-11-09T14:36:35.215Z,5.63
2022-11-09T14:39:04.974Z,4.05
2022-11-09T14:41:31.908Z,3.08
2022-11-09T14:44:00.489Z,2.15
2022-11-09T14:46:30.657Z,3.67
2022-11-09T14:49:00.067Z,1.73
2022-11-09T14:51:38.148Z,3.38
2022-11-09T14:54:14.074Z,3.17
2022-11-09T14:56:42.245Z,1.85
2022-11-09T14:59:17.277Z,4.93
2022-11-09T15:02:07.570Z,1.67
2022-11-09T15:04:57.815Z,1.80
2022-11-09T15:07:45.871Z,3.17
2022-11-09T15:10:19.921Z,2.75
2022-11-09T15:12:56.028Z,3.30
2022-11-09T15:15:26.640Z,4.18
2022-11-09T15:17:53.792Z,3.67
2022-11-09T15:20:20.575Z,2.63
2022-11-09T15:23:02.993Z,3.83
2022-11-09T15:25:38.959Z,7.75
2022-11-09T15:28:08.503Z,2.22
2022-11-09T15:30:45.613Z,2.20
2022-11-09T15:33:35.949Z,4.30
2022-11-09T15:36:07.323Z,1.13
2022-11-09T15:38:39.629Z,4.65
2022-11-09T15:43:37.128Z,4.05
2022-11-09T15:46:04.173Z,3.45
2022-11-09T15:48:31.595Z,4.22
2022-11-09T15:50:58.350Z,2.92
2022-11-09T15:53:25.263Z,3.47
2022-11-09T15:55:51.937Z,3.88
2022-11-09T15:58:19.718Z,3.75
2022-11-09T16:00:46.636Z,2.95
2022-11-09T16:03:13.352Z,4.55
2022-11-09T16:05:39.985Z,3.95
2022-11-09T16:08:07.749Z,4.80
2022-11-09T16:10:37.710Z,2.28
2022-11-09T16:13:05.218Z,2.33
2022-11-09T16:15:32.838Z,3.53
2022-11-09T16:18:00.006Z,3.55
2022-11-09T16:20:26.890Z,1.60
2022-11-09T16:22:53.805Z,2.75
2022-11-09T16:25:21.131Z,3.03
2022-11-09T16:27:50.924Z,2.38
2022-11-09T16:30:19.199Z,3.38
2022-11-09T16:32:46.027Z,4.05
2022-11-09T16:35:26.631Z,2.65
2022-11-09T16:37:55.581Z,3.13
2022-11-09T16:40:22.760Z,3.20
2022-11-09T16:42:51.207Z,3.67
2022-11-09T16:45:19.115Z,3.58
2022-11-09T16:47:50.168Z,3.08
2022-11-09T16:50:17.308Z,4.32
2022-11-09T16:52:44.737Z,3.35
2022-11-09T16:55:11.549Z,2.10
2022-11-09T16:57:38.324Z,4.00
2022-11-09T17:00:08.090Z,5.72
2022-11-09T17:02:35.191Z,2.05
2022-11-09T17:05:02.005Z,2.15
2022-11-09T17:07:29.084Z,2.80
2022-11-09T17:09:56.154Z,6.15
2022-11-09T17:12:22.806Z,3.97
2022-11-09T17:14:49.478Z,4.78
2022-11-09T17:17:22.217Z,5.32
2022-11-09T17:19:49.151Z,5.13
2022-11-09T17:22:16.143Z,4.28
2022-11-09T17:24:42.791Z,6.85
2022-11-09T17:27:10.379Z,6.03
2022-11-09T17:29:37.812Z,6.50
2022-11-09T17:32:06.450Z,5.78
2022-11-09T17:34:33.767Z,6.47
2022-11-09T17:37:05.480Z,6.05
2022-11-09T17:39:32.884Z,8.20
2022-11-09T17:41:59.565Z,4.60
2022-11-09T17:44:26.187Z,7.50
2022-11-09T17:46:52.941Z,5.40
2022-11-09T17:49:19.612Z,6.63
2022-11-09T17:51:46.235Z,2.50
2022-11-09T17:54:15.182Z,7.63
2022-11-09T17:56:41.974Z,3.38
2022-11-09T17:59:09.023Z,4.45
2022-11-09T18:01:41.254Z,6.80
2022-11-09T18:04:10.151Z,8.30
2022-11-09T18:06:37.760Z,7.28
2022-11-09T18:09:39.024Z,6.32
2022-11-09T18:11:51.321Z,5.78
2022-11-09T18:14:18.126Z,7.97
2022-11-09T18:16:45.259Z,10.20
2022-11-09T18:19:12.335Z,6.03
2022-11-09T18:21:39.184Z,7.47
2022-11-09T18:24:06.267Z,6.63
2022-11-09T18:26:33.161Z,5.32
2022-11-09T18:29:00.195Z,7.38
2022-11-09T18:31:27.277Z,7.10
2022-11-09T18:33:54.098Z,6.43
2022-11-09T18:36:21.489Z,5.40
2022-11-09T18:38:51.874Z,9.15
2022-11-09T18:41:21.821Z,6.13
2022-11-09T18:43:50.163Z,8.07
2022-11-09T18:46:18.983Z,10.02
2022-11-09T18:48:49.692Z,8.10
2022-11-09T18:51:16.430Z,7.25
2022-11-09T18:53:46.187Z,5.50
2022-11-09T18:56:21.503Z,6.20
2022-11-09T18:58:49.441Z,4.05
2022-11-09T19:01:16.902Z,7.55
2022-11-09T19:03:43.626Z,6.30
2022-11-09T19:06:13.946Z,4.85
2022-11-09T19:08:59.645Z,5.43
2022-11-09T19:11:26.645Z,3.78
2022-11-09T19:13:54.777Z,6.38
2022-11-09T19:16:22.584Z,8.43
2022-11-09T19:18:49.709Z,6.00
2022-11-09T19:21:25.931Z,5.25
2022-11-09T19:23:52.976Z,4.45
2022-11-09T19:26:21.163Z,5.03
2022-11-09T19:28:47.835Z,5.82
2022-11-09T19:31:16.446Z,6.72
2022-11-09T19:33:43.190Z,6.45
2022-11-09T19:38:58.304Z,6.78
2022-11-09T19:41:25.565Z,7.07
2022-11-09T19:43:54.586Z,10.73
2022-11-09T19:46:21.937Z,6.78
2022-11-09T19:48:48.921Z,7.05
2022-11-09T19:51:16.949Z,5.88
2022-11-09T19:53:52.833Z,6.75
2022-11-09T19:56:20.802Z,5.10
2022-11-09T19:58:52.844Z,5.60
2022-11-09T20:01:20.268Z,6.40
2022-11-09T20:03:55.417Z,5.03
2022-11-09T20:06:23.587Z,8.23
2022-11-09T20:08:52.006Z,5.05
2022-11-09T20:11:39.239Z,5.88
2022-11-09T20:14:07.028Z,5.00
2022-11-09T20:16:34.643Z,4.55
2022-11-09T20:19:03.004Z,5.93
2022-11-09T20:21:29.740Z,10.77
2022-11-09T20:23:56.385Z,4.82
2022-11-09T20:26:24.189Z,6.47
2022-11-09T20:28:53.384Z,4.43
2022-11-09T20:31:20.817Z,8.10
2022-11-09T20:33:48.341Z,5.65
2022-11-09T20:36:15.316Z,4.93
2022-11-09T20:38:42.132Z,4.18
2022-11-09T20:41:11.416Z,4.55
2022-11-09T20:43:39.431Z,4.25
2022-11-09T20:46:08.679Z,5.95
2022-11-09T20:48:53.544Z,8.02
2022-11-09T20:51:22.654Z,8.40
2022-11-09T20:53:50.254Z,9.25
2022-11-09T20:56:18.770Z,9.00
2022-11-09T20:58:45.960Z,7.03
2022-11-09T21:01:20.551Z,4.80
2022-11-09T21:03:48.843Z,5.88
2022-11-09T21:06:15.615Z,5.20
2022-11-09T21:08:47.302Z,6.88
2022-11-09T21:11:14.283Z,5.15
2022-11-09T21:13:46.078Z,8.40
2022-11-09T21:16:16.781Z,8.02
2022-11-09T21:18:43.546Z,5.97
2022-11-09T21:21:17.710Z,8.20
2022-11-09T21:24:02.894Z,7.60
2022-11-09T21:26:48.530Z,6.53
2022-11-09T21:29:36.330Z,11.65
2022-11-09T21:32:04.144Z,15.52
2022-11-09T21:34:36.328Z,11.77
2022-11-09T21:37:04.726Z,13.63
2022-11-09T21:39:31.767Z,11.70
2022-11-09T21:41:58.834Z,9.30
2022-11-09T21:44:27.632Z,7.00
2022-11-09T21:46:54.244Z,6.72
2022-11-09T21:49:20.898Z,8.23
2022-11-09T21:51:47.646Z,6.60
2022-11-09T21:54:14.414Z,7.03
2022-11-09T21:56:41.058Z,4.63
2022-11-09T21:59:07.736Z,7.70
2022-11-09T22:01:34.544Z,6.47
2022-11-09T22:04:01.342Z,5.20
2022-11-09T22:06:28.112Z,5.03
2022-11-09T22:08:54.897Z,6.03
2022-11-09T22:11:45.159Z,8.20
2022-11-09T22:14:35.222Z,7.68
2022-11-09T22:17:03.063Z,6.82
2022-11-09T22:19:48.301Z,6.38
2022-11-09T22:22:15.772Z,3.47
2022-11-09T22:24:42.757Z,4.97
2022-11-09T22:27:09.755Z,5.78
2022-11-09T22:29:36.607Z,4.50
2022-11-09T22:32:04.267Z,4.78
2022-11-09T22:34:30.960Z,5.40
2022-11-09T22:36:57.622Z,4.75
2022-11-09T22:39:24.347Z,9.27
2022-11-09T22:41:51.022Z,4.57
2022-11-09T22:44:18.006Z,8.07
2022-11-09T22:46:44.649Z,7.22
2022-11-09T22:49:11.294Z,4.72
2022-11-09T22:51:37.979Z,5.50
2022-11-09T22:54:04.659Z,6.60
2022-11-09T22:56:31.331Z,5.13
2022-11-09T22:58:58.088Z,7.15
2022-11-09T23:01:24.763Z,7.35
2022-11-09T23:03:52.243Z,4.85
2022-11-09T23:06:21.049Z,6.10
2022-11-09T23:08:48.224Z,4.13
2022-11-09T23:11:17.801Z,4.97
2022-11-09T23:13:44.859Z,5.65
2022-11-09T23:16:12.147Z,6.72
2022-11-09T23:18:54.196Z,3.67
2022-11-09T23:21:23.886Z,7.20
2022-11-09T23:23:52.092Z,3.80
2022-11-09T23:26:19.775Z,5.13
2022-11-09T23:28:46.564Z,4.25
2022-11-09T23:31:16.088Z,4.32
2022-11-09T23:33:43.332Z,6.85
2022-11-09T23:36:10.113Z,3.78
2022-11-09T23:38:38.619Z,6.35
2022-11-09T23:41:10.646Z,6.45
2022-11-09T23:43:37.736Z,6.13
2022-11-09T23:46:07.069Z,6.18
2022-11-09T23:48:34.059Z,5.85
2022-11-09T23:51:01.726Z,4.97
2022-11-09T23:53:29.642Z,7.25
2022-11-09T23:56:01.159Z,6.25
2022-11-09T23:58:28.501Z,8.15
